Time;durP1;ratioP1;P1;durP2;ratioP2;P2;SDS_P1;SDS_P2;PMS_P1;PMS_P2;Temp;Humidity;BMP_temperature;BMP_pressure;BME280_temperature;BME280_humidity;BME280_pressure;Samples;Min_cycle;Max_cycle;Signal;HPM_P1;HPM_P2
2022/04/12 00:00:19;;;;;;;;;;;8.20;99.90;;;;;;5091204;28;20306;-45
2022/04/12 00:02:44;;;;;;;;;;;8.10;99.90;;;;;;5094298;28;19934;-49
2022/04/12 00:05:13;;;;;;;;;;;8.10;99.90;;;;;;5094505;28;20406;-46
2022/04/12 00:07:43;;;;;;;;;;;8.10;99.90;;;;;;5094837;28;20366;-44
2022/04/12 00:10:09;;;;;;;;;;;8.00;99.90;;;;;;5094062;28;20358;-46
2022/04/12 00:12:35;;;;;;;;;;;8.00;99.90;;;;;;5095070;28;20345;-44
2022/04/12 00:15:02;;;;;;;;;;;8.00;99.90;;;;;;5095210;28;19947;-45
2022/04/12 00:20:12;;;;;;;;;;;8.00;99.90;;;;;;5095412;28;19919;-44
2022/04/12 00:22:39;;;;;;;;;;;8.00;99.90;;;;;;5095105;28;19912;-45
2022/04/12 00:25:07;;;;;;;;;;;8.00;99.90;;;;;;5094320;28;19912;-46
2022/04/12 00:27:33;;;;;;;;;;;8.00;99.90;;;;;;5094673;28;19908;-44
2022/04/12 00:29:58;;;;;;;;;;;8.00;99.90;;;;;;5094842;28;20264;-46
2022/04/12 00:32:24;;;;;;;;;;;8.00;99.90;;;;;;5093736;28;20266;-45
2022/04/12 00:34:49;;;;;;;;;;;8.00;99.90;;;;;;5094773;28;20322;-44
2022/04/12 00:37:15;;;;;;;;;;;7.90;99.90;;;;;;5094116;28;19920;-44
2022/04/12 00:39:40;;;;;;;;;;;7.90;99.90;;;;;;5093838;28;19912;-46
2022/04/12 00:42:06;;;;;;;;;;;7.90;99.90;;;;;;5094597;28;19919;-46
2022/04/12 00:44:31;;;;;;;;;;;7.90;99.90;;;;;;5094432;28;19940;-42
2022/04/12 00:46:57;;;;;;;;;;;7.90;99.90;;;;;;5093427;28;20378;-46
2022/04/12 00:49:26;;;;;;;;;;;7.90;99.90;;;;;;5094346;28;20014;-45
2022/04/12 00:51:52;;;;;;;;;;;7.90;99.90;;;;;;5094321;28;19908;-45
2022/04/12 00:54:19;;;;;;;;;;;7.80;99.90;;;;;;5093620;28;19936;-43
2022/04/12 00:56:45;;;;;;;;;;;7.80;99.90;;;;;;5093809;28;19927;-43
2022/04/12 00:59:11;;;;;;;;;;;7.80;99.90;;;;;;5094269;28;19916;-45
2022/04/12 01:01:36;;;;;;;;;;;7.80;99.90;;;;;;5093430;28;20267;-43
2022/04/12 01:04:02;;;;;;;;;;;7.80;99.90;;;;;;5094114;28;20006;-46
2022/04/12 01:06:27;;;;;;;;;;;7.80;99.90;;;;;;5093405;28;19958;-44
2022/04/12 01:08:53;;;;;;;;;;;7.70;99.90;;;;;;5094062;28;19912;-44
2022/04/12 01:11:20;;;;;;;;;;;7.70;99.90;;;;;;5094201;28;19915;-45
2022/04/12 01:13:46;;;;;;;;;;;7.70;99.90;;;;;;5091750;28;20018;-46
2022/04/12 01:16:11;;;;;;;;;;;7.70;99.90;;;;;;5093591;28;20003;-43
2022/04/12 01:18:37;;;;;;;;;;;7.70;99.90;;;;;;5093792;28;19953;-44
2022/04/12 01:21:03;;;;;;;;;;;7.60;99.90;;;;;;5093223;28;19950;-46
2022/04/12 01:23:31;;;;;;;;;;;7.70;99.90;;;;;;5093387;28;19947;-43
2022/04/12 01:25:57;;;;;;;;;;;7.60;99.90;;;;;;5093721;28;20318;-44
2022/04/12 01:28:22;;;;;;;;;;;7.60;99.90;;;;;;5092892;28;19908;-48
2022/04/12 01:30:50;;;;;;;;;;;7.60;99.90;;;;;;5093576;28;20354;-44
2022/04/12 01:33:15;;;;;;;;;;;7.60;99.90;;;;;;5093499;28;19997;-43
2022/04/12 01:35:41;;;;;;;;;;;7.50;99.90;;;;;;5092688;28;19928;-44
2022/04/12 01:38:06;;;;;;;;;;;7.50;99.90;;;;;;5092954;28;19934;-48
2022/04/12 01:40:32;;;;;;;;;;;7.50;99.90;;;;;;5093480;28;20001;-43
2022/04/12 01:42:57;;;;;;;;;;;7.50;99.90;;;;;;5092218;28;19982;-47
2022/04/12 01:45:24;;;;;;;;;;;7.50;99.90;;;;;;5093418;28;19908;-45
2022/04/12 01:47:49;;;;;;;;;;;7.50;99.90;;;;;;5093320;28;19961;-47
2022/04/12 01:50:15;;;;;;;;;;;7.40;99.90;;;;;;5092703;28;19908;-43
2022/04/12 01:52:40;;;;;;;;;;;7.40;99.90;;;;;;5092856;28;19909;-43
2022/04/12 01:55:06;;;;;;;;;;;7.40;99.90;;;;;;5093225;28;20007;-43
2022/04/12 01:57:32;;;;;;;;;;;7.40;99.90;;;;;;5092403;28;19917;-44
2022/04/12 01:59:58;;;;;;;;;;;7.30;99.90;;;;;;5093244;28;20374;-44
2022/04/12 02:02:23;;;;;;;;;;;7.30;99.90;;;;;;5093079;28;19915;-46
2022/04/12 02:04:49;;;;;;;;;;;7.30;99.90;;;;;;5091821;28;19908;-44
2022/04/12 02:07:14;;;;;;;;;;;7.20;99.90;;;;;;5093022;28;19966;-48
2022/04/12 02:09:40;;;;;;;;;;;7.20;99.90;;;;;;5092440;28;19908;-50
2022/04/12 02:12:05;;;;;;;;;;;7.20;99.90;;;;;;5092667;28;19916;-43
2022/04/12 02:14:31;;;;;;;;;;;7.20;99.90;;;;;;5092374;28;20052;-45
2022/04/12 02:16:56;;;;;;;;;;;7.10;99.90;;;;;;5091928;28;19920;-47
2022/04/12 02:19:22;;;;;;;;;;;7.00;99.90;;;;;;5092802;28;20340;-43
2022/04/12 02:21:47;;;;;;;;;;;7.00;99.90;;;;;;5092688;28;20355;-43
2022/04/12 02:24:13;;;;;;;;;;;7.00;99.90;;;;;;5091036;28;20335;-43
2022/04/12 02:26:38;;;;;;;;;;;7.00;99.90;;;;;;5092698;28;19912;-44
2022/04/12 02:29:04;;;;;;;;;;;7.00;99.90;;;;;;5092649;28;20236;-45
2022/04/12 02:31:30;;;;;;;;;;;7.00;99.90;;;;;;5091354;28;20294;-46
2022/04/12 02:33:56;;;;;;;;;;;7.00;99.90;;;;;;5092319;28;20378;-47
2022/04/12 02:36:21;;;;;;;;;;;7.00;99.90;;;;;;5092015;28;19928;-44
2022/04/12 02:38:47;;;;;;;;;;;7.00;99.90;;;;;;5091571;28;19917;-43
2022/04/12 02:41:12;;;;;;;;;;;7.00;99.90;;;;;;5092316;28;19908;-42
2022/04/12 02:43:37;;;;;;;;;;;6.90;99.90;;;;;;5092186;28;20297;-45
2022/04/12 02:46:03;;;;;;;;;;;6.90;99.90;;;;;;5091654;28;20321;-44
2022/04/12 02:48:28;;;;;;;;;;;6.90;99.90;;;;;;5092232;28;20374;-44
2022/04/12 02:50:54;;;;;;;;;;;6.90;99.90;;;;;;5092217;28;20447;-43
2022/04/12 02:53:19;;;;;;;;;;;6.90;99.90;;;;;;5091017;28;20486;-47
2022/04/12 02:55:45;;;;;;;;;;;6.90;99.90;;;;;;5092032;28;20049;-45
2022/04/12 02:58:10;;;;;;;;;;;6.80;99.90;;;;;;5091999;28;19916;-47
2022/04/12 03:00:36;;;;;;;;;;;6.80;99.90;;;;;;5091280;28;19908;-43
2022/04/12 03:03:01;;;;;;;;;;;6.80;99.90;;;;;;5091635;28;19916;-44
2022/04/12 03:05:27;;;;;;;;;;;6.80;99.90;;;;;;5092051;28;19912;-44
2022/04/12 03:07:52;;;;;;;;;;;6.80;99.90;;;;;;5091296;28;19915;-47
2022/04/12 03:10:18;;;;;;;;;;;6.80;99.90;;;;;;5092037;28;19908;-45
2022/04/12 03:12:43;;;;;;;;;;;6.80;99.90;;;;;;5091421;28;19912;-44
2022/04/12 03:15:09;;;;;;;;;;;6.80;99.90;;;;;;5090983;28;19935;-43
2022/04/12 03:17:35;;;;;;;;;;;6.80;99.90;;;;;;5091536;28;19916;-47
2022/04/12 03:20:00;;;;;;;;;;;6.80;99.90;;;;;;5091418;28;19958;-44
2022/04/12 03:22:26;;;;;;;;;;;6.70;99.90;;;;;;5091477;28;19919;-46
2022/04/12 03:24:51;;;;;;;;;;;6.70;99.90;;;;;;5091748;28;19971;-44
2022/04/12 03:27:16;;;;;;;;;;;6.70;99.90;;;;;;5090982;28;19912;-46
2022/04/12 03:29:42;;;;;;;;;;;6.70;99.90;;;;;;5091784;28;20260;-44
2022/04/12 03:32:08;;;;;;;;;;;6.60;99.90;;;;;;5091408;28;20109;-43
2022/04/12 03:34:33;;;;;;;;;;;6.60;99.90;;;;;;5091101;28;20367;-45
2022/04/12 03:36:59;;;;;;;;;;;6.60;99.90;;;;;;5093258;28;20010;-45
2022/04/12 03:39:25;;;;;;;;;;;6.60;99.90;;;;;;5095628;28;20013;-47
2022/04/12 03:41:51;;;;;;;;;;;6.60;99.90;;;;;;5094620;28;19921;-43
2022/04/12 03:44:17;;;;;;;;;;;6.60;99.90;;;;;;5095974;28;19985;-50
2022/04/12 03:46:43;;;;;;;;;;;6.60;99.90;;;;;;5095690;28;20374;-44
2022/04/12 03:49:09;;;;;;;;;;;6.70;99.90;;;;;;5094977;28;19998;-45
2022/04/12 03:51:35;;;;;;;;;;;6.70;99.90;;;;;;5095325;28;19947;-43
2022/04/12 03:54:01;;;;;;;;;;;6.70;99.90;;;;;;5095445;28;19944;-46
2022/04/12 03:56:27;;;;;;;;;;;6.70;99.90;;;;;;5094646;28;20485;-44
2022/04/12 03:58:53;;;;;;;;;;;6.70;99.90;;;;;;5095564;28;20007;-45
2022/04/12 04:01:19;;;;;;;;;;;6.70;99.90;;;;;;5095487;28;19955;-44
2022/04/12 04:03:44;;;;;;;;;;;6.70;99.90;;;;;;5094272;28;19916;-48
2022/04/12 04:06:11;;;;;;;;;;;6.70;99.90;;;;;;5095390;28;20366;-47
2022/04/12 04:08:36;;;;;;;;;;;6.70;99.90;;;;;;5095191;28;19953;-43
2022/04/12 04:11:02;;;;;;;;;;;6.70;99.90;;;;;;5094318;28;19912;-50
2022/04/12 04:13:30;;;;;;;;;;;6.70;99.90;;;;;;5094823;28;19955;-45
2022/04/12 04:15:56;;;;;;;;;;;6.70;99.90;;;;;;5094993;28;19916;-45
2022/04/12 04:18:21;;;;;;;;;;;6.70;99.90;;;;;;5094238;28;20266;-43
2022/04/12 04:20:47;;;;;;;;;;;6.70;99.90;;;;;;5094926;28;19919;-44
2022/04/12 04:23:12;;;;;;;;;;;6.70;99.90;;;;;;5094728;28;19923;-46
2022/04/12 04:25:38;;;;;;;;;;;6.70;99.90;;;;;;5094177;28;20363;-44
2022/04/12 04:28:05;;;;;;;;;;;6.70;99.90;;;;;;5094884;28;19916;-44
2022/04/12 04:30:33;;;;;;;;;;;6.70;99.90;;;;;;5093756;28;20325;-44
2022/04/12 04:32:59;;;;;;;;;;;6.60;99.90;;;;;;5094354;28;19913;-44
2022/04/12 04:35:25;;;;;;;;;;;6.60;99.90;;;;;;5094618;28;19920;-50
2022/04/12 04:37:50;;;;;;;;;;;6.60;99.90;;;;;;5093697;28;19927;-45
2022/04/12 04:40:22;;;;;;;;;;;6.60;99.90;;;;;;5094711;28;19961;-43
2022/04/12 04:42:49;;;;;;;;;;;6.60;99.90;;;;;;5094171;28;20074;-43
2022/04/12 04:45:15;;;;;;;;;;;6.50;99.90;;;;;;5093871;28;19908;-44
2022/04/12 04:48:07;;;;;;;;;;;6.50;99.90;;;;;;5094198;28;20282;-46
2022/04/12 04:50:33;;;;;;;;;;;6.50;99.90;;;;;;5089737;28;20371;-44
2022/04/12 04:52:59;;;;;;;;;;;6.50;99.90;;;;;;5093397;28;19923;-43
2022/04/12 04:55:25;;;;;;;;;;;6.50;99.90;;;;;;5094400;28;19908;-44
2022/04/12 04:57:53;;;;;;;;;;;6.40;99.90;;;;;;5094476;28;19914;-43
2022/04/12 05:00:18;;;;;;;;;;;6.40;99.90;;;;;;5093500;28;19916;-44
2022/04/12 05:02:44;;;;;;;;;;;6.40;99.90;;;;;;5093950;28;19912;-46
2022/04/12 05:05:10;;;;;;;;;;;6.40;99.90;;;;;;5094102;28;19908;-47
2022/04/12 05:07:36;;;;;;;;;;;6.40;99.90;;;;;;5093269;28;19912;-45
2022/04/12 05:10:02;;;;;;;;;;;6.40;99.90;;;;;;5094040;28;19961;-44
2022/04/12 05:12:27;;;;;;;;;;;6.30;99.90;;;;;;5093556;28;19916;-44
2022/04/12 05:14:53;;;;;;;;;;;6.30;99.90;;;;;;5093398;28;19919;-45
2022/04/12 05:17:25;;;;;;;;;;;6.40;99.90;;;;;;5093920;28;19916;-46
2022/04/12 05:19:51;;;;;;;;;;;6.30;99.90;;;;;;5093159;28;20394;-46
2022/04/12 05:22:16;;;;;;;;;;;6.40;99.90;;;;;;5093503;28;20397;-44
2022/04/12 05:24:42;;;;;;;;;;;6.30;99.90;;;;;;5093676;28;19908;-45
2022/04/12 05:27:07;;;;;;;;;;;6.40;99.90;;;;;;5093186;28;19919;-43
2022/04/12 05:29:33;;;;;;;;;;;6.40;99.90;;;;;;5093714;28;20260;-46
2022/04/12 05:31:58;;;;;;;;;;;6.50;99.90;;;;;;5093460;28;19990;-43
2022/04/12 05:34:24;;;;;;;;;;;6.60;99.90;;;;;;5092957;28;19908;-44
2022/04/12 05:36:49;;;;;;;;;;;6.70;99.90;;;;;;5075003;28;19928;-44
2022/04/12 05:39:14;;;;;;;;;;;6.70;99.90;;;;;;5093528;28;19908;-46
2022/04/12 05:41:40;;;;;;;;;;;6.80;99.90;;;;;;5092461;28;20003;-46
2022/04/12 05:44:06;;;;;;;;;;;6.90;99.90;;;;;;5093542;28;19963;-44
2022/04/12 05:46:31;;;;;;;;;;;7.00;99.90;;;;;;5093590;28;19991;-45
2022/04/12 05:48:56;;;;;;;;;;;7.20;99.90;;;;;;5092665;28;19995;-47
2022/04/12 05:51:22;;;;;;;;;;;7.30;99.90;;;;;;5093104;28;20274;-47
2022/04/12 05:53:47;;;;;;;;;;;7.40;99.90;;;;;;5093506;28;20421;-45
2022/04/12 05:56:13;;;;;;;;;;;7.60;99.90;;;;;;5092711;28;19921;-44
2022/04/12 05:58:40;;;;;;;;;;;7.70;99.90;;;;;;5092750;28;20006;-47
2022/04/12 06:01:06;;;;;;;;;;;7.80;99.90;;;;;;5092423;28;19908;-46
2022/04/12 06:03:31;;;;;;;;;;;7.90;99.90;;;;;;5092175;28;19918;-44
2022/04/12 06:05:57;;;;;;;;;;;7.90;99.90;;;;;;5093018;28;19918;-44
2022/04/12 06:08:22;;;;;;;;;;;8.00;99.90;;;;;;5074749;28;19908;-43
2022/04/12 06:10:47;;;;;;;;;;;8.10;99.90;;;;;;5091774;28;19972;-47
2022/04/12 06:13:13;;;;;;;;;;;8.20;99.90;;;;;;5092962;28;20430;-45
2022/04/12 06:15:38;;;;;;;;;;;8.20;99.90;;;;;;5092714;28;19916;-47
2022/04/12 06:18:04;;;;;;;;;;;8.30;99.90;;;;;;5091847;28;19965;-43
2022/04/12 06:20:29;;;;;;;;;;;8.30;99.90;;;;;;5092337;28;19919;-48
2022/04/12 06:22:55;;;;;;;;;;;8.30;99.90;;;;;;5092023;28;19913;-45
2022/04/12 06:25:20;;;;;;;;;;;8.30;99.90;;;;;;5092723;28;19912;-44
2022/04/12 06:27:50;;;;;;;;;;;8.40;99.90;;;;;;5092567;28;19916;-44
2022/04/12 06:30:17;;;;;;;;;;;8.50;99.90;;;;;;5091507;28;19916;-44
2022/04/12 06:32:43;;;;;;;;;;;8.50;99.90;;;;;;5092466;28;19923;-42
2022/04/12 06:35:09;;;;;;;;;;;8.60;99.90;;;;;;5092062;28;19912;-43
2022/04/12 06:37:35;;;;;;;;;;;8.70;99.90;;;;;;5098272;28;19920;-48
2022/04/12 06:40:01;;;;;;;;;;;8.70;99.90;;;;;;5112557;28;19907;-44
2022/04/12 06:42:26;;;;;;;;;;;8.80;99.90;;;;;;5112094;28;19968;-43
2022/04/12 06:44:52;;;;;;;;;;;8.90;99.90;;;;;;5092675;28;19919;-43
2022/04/12 06:47:18;;;;;;;;;;;9.00;99.90;;;;;;5109147;28;19912;-44
2022/04/12 06:49:44;;;;;;;;;;;9.10;99.90;;;;;;5098900;28;19981;-43
2022/04/12 06:52:10;;;;;;;;;;;9.20;99.90;;;;;;5106257;28;19950;-43
2022/04/12 06:54:35;;;;;;;;;;;9.30;99.90;;;;;;5091607;28;20171;-44
2022/04/12 06:57:01;;;;;;;;;;;9.30;99.90;;;;;;5090906;28;19945;-46
2022/04/12 06:59:26;;;;;;;;;;;9.40;99.90;;;;;;5091655;28;19908;-47
2022/04/12 07:01:52;;;;;;;;;;;9.40;99.90;;;;;;5091989;28;19914;-44
2022/04/12 07:04:17;;;;;;;;;;;9.40;99.90;;;;;;5092020;28;20256;-45
2022/04/12 07:06:43;;;;;;;;;;;9.40;99.90;;;;;;5091640;28;19916;-42
2022/04/12 07:09:11;;;;;;;;;;;9.40;99.90;;;;;;5092112;28;19953;-44
2022/04/12 07:11:36;;;;;;;;;;;9.30;99.90;;;;;;5092159;28;20482;-45
2022/04/12 07:14:01;;;;;;;;;;;9.30;99.90;;;;;;5090962;28;19998;-46
2022/04/12 07:16:27;;;;;;;;;;;9.30;99.90;;;;;;5096652;28;20481;-44
2022/04/12 07:18:52;;;;;;;;;;;9.30;99.90;;;;;;5112132;28;20013;-44
2022/04/12 07:21:21;;;;;;;;;;;9.30;99.90;;;;;;5100245;28;19912;-45
2022/04/12 07:23:49;;;;;;;;;;;9.30;99.90;;;;;;5091773;28;20304;-44
2022/04/12 07:26:15;;;;;;;;;;;9.30;99.90;;;;;;5091370;28;19915;-48
2022/04/12 07:28:40;;;;;;;;;;;9.40;99.90;;;;;;5092176;28;19908;-45
2022/04/12 07:31:06;;;;;;;;;;;9.50;99.90;;;;;;5091731;28;20000;-43
2022/04/12 07:33:31;;;;;;;;;;;9.50;99.90;;;;;;5102709;28;19965;-44
2022/04/12 07:35:56;;;;;;;;;;;9.60;99.90;;;;;;5111901;28;20409;-44
2022/04/12 07:38:22;;;;;;;;;;;9.80;99.90;;;;;;5112386;28;19911;-44
2022/04/12 07:40:47;;;;;;;;;;;9.90;99.90;;;;;;5111250;28;20042;-44
2022/04/12 07:43:13;;;;;;;;;;;10.10;99.90;;;;;;5112341;28;19943;-44
2022/04/12 07:45:38;;;;;;;;;;;10.20;99.90;;;;;;5112240;28;19915;-44
2022/04/12 07:48:04;;;;;;;;;;;10.30;99.90;;;;;;5111226;28;19911;-46
2022/04/12 07:50:29;;;;;;;;;;;10.40;99.90;;;;;;5112222;28;19907;-45
2022/04/12 07:52:55;;;;;;;;;;;10.50;99.90;;;;;;5111819;28;19908;-49
2022/04/12 07:55:20;;;;;;;;;;;10.70;99.90;;;;;;5111290;28;19931;-45
2022/04/12 07:57:45;;;;;;;;;;;10.80;99.90;;;;;;5111641;28;20074;-47
2022/04/12 08:00:11;;;;;;;;;;;10.80;99.90;;;;;;5112061;28;19915;-46
2022/04/12 08:02:37;;;;;;;;;;;11.00;99.90;;;;;;5111102;28;19908;-44
2022/04/12 08:05:02;;;;;;;;;;;11.10;99.90;;;;;;5111899;28;19908;-45
2022/04/12 08:07:27;;;;;;;;;;;11.20;99.90;;;;;;5112137;28;19912;-44
2022/04/12 08:09:53;;;;;;;;;;;11.30;99.90;;;;;;5110826;28;19908;-44
2022/04/12 08:12:18;;;;;;;;;;;11.40;99.90;;;;;;5108169;28;19915;-50
2022/04/12 08:14:44;;;;;;;;;;;11.50;99.90;;;;;;5096950;28;19914;-45
2022/04/12 08:17:09;;;;;;;;;;;11.60;99.90;;;;;;5111165;28;20381;-44
2022/04/12 08:19:35;;;;;;;;;;;11.70;99.90;;;;;;5099064;28;20004;-48
2022/04/12 08:22:01;;;;;;;;;;;11.80;99.90;;;;;;5091130;28;19959;-46
2022/04/12 08:24:26;;;;;;;;;;;11.90;99.90;;;;;;5095515;28;19908;-44
2022/04/12 08:26:52;;;;;;;;;;;12.10;99.90;;;;;;5095516;28;20441;-45
2022/04/12 08:29:17;;;;;;;;;;;12.10;99.90;;;;;;5095298;28;20279;-45
2022/04/12 08:31:43;;;;;;;;;;;12.20;99.90;;;;;;5094426;28;20264;-44
2022/04/12 08:34:08;;;;;;;;;;;12.30;99.90;;;;;;5094969;28;20275;-44
2022/04/12 08:36:34;;;;;;;;;;;12.40;99.90;;;;;;5093978;28;19926;-45
2022/04/12 08:38:59;;;;;;;;;;;12.50;98.00;;;;;;5094794;28;19909;-48
2022/04/12 08:41:26;;;;;;;;;;;12.50;99.50;;;;;;5094285;28;20363;-51
2022/04/12 08:43:54;;;;;;;;;;;12.60;99.90;;;;;;5094445;28;19916;-45
2022/04/12 08:46:20;;;;;;;;;;;12.70;99.90;;;;;;5095756;28;19908;-45
2022/04/12 08:48:46;;;;;;;;;;;12.90;99.90;;;;;;5095625;28;20027;-45
2022/04/12 08:51:11;;;;;;;;;;;13.00;99.90;;;;;;5094064;28;19977;-50
2022/04/12 08:53:37;;;;;;;;;;;13.10;99.90;;;;;;5093621;28;19948;-46
2022/04/12 08:56:03;;;;;;;;;;;13.20;99.90;;;;;;5093615;28;19916;-44
2022/04/12 08:58:28;;;;;;;;;;;13.40;99.70;;;;;;5092759;28;19916;-45
2022/04/12 09:00:54;;;;;;;;;;;13.50;97.90;;;;;;5094750;28;19951;-44
2022/04/12 09:03:20;;;;;;;;;;;13.60;99.70;;;;;;5095726;28;20278;-48
2022/04/12 09:05:45;;;;;;;;;;;13.70;98.20;;;;;;5095062;28;19908;-45
2022/04/12 09:08:27;;;;;;;;;;;13.90;96.20;;;;;;5095367;28;20510;-44
2022/04/12 09:11:01;;;;;;;;;;;14.00;97.90;;;;;;5095513;28;20375;-44
2022/04/12 09:13:26;;;;;;;;;;;14.10;98.30;;;;;;5095096;28;19907;-45
2022/04/12 09:15:52;;;;;;;;;;;14.20;99.30;;;;;;5095354;28;20347;-47
2022/04/12 09:18:50;;;;;;;;;;;14.30;93.70;;;;;;5095023;28;19916;-44
2022/04/12 09:21:17;;;;;;;;;;;14.40;96.40;;;;;;5040733;28;19913;-45
2022/04/12 09:23:53;;;;;;;;;;;14.50;95.80;;;;;;5074929;28;19909;-44
2022/04/12 09:26:26;;;;;;;;;;;14.60;97.50;;;;;;5074407;28;19995;-45
2022/04/12 09:28:52;;;;;;;;;;;14.70;95.00;;;;;;5084003;28;19971;-44
2022/04/12 09:31:18;;;;;;;;;;;14.90;96.20;;;;;;5095226;28;20016;-46
2022/04/12 09:33:45;;;;;;;;;;;15.00;92.20;;;;;;5093612;28;19978;-47
2022/04/12 09:36:11;;;;;;;;;;;15.10;92.50;;;;;;5094457;28;20342;-44
2022/04/12 09:38:37;;;;;;;;;;;15.20;93.60;;;;;;5094743;28;19912;-46
2022/04/12 09:41:32;;;;;;;;;;;15.30;90.60;;;;;;5094445;28;19908;-48
2022/04/12 09:44:08;;;;;;;;;;;15.30;92.80;;;;;;5077229;28;19908;-45
2022/04/12 09:46:41;;;;;;;;;;;15.40;93.30;;;;;;5094820;28;19915;-44
2022/04/12 09:49:07;;;;;;;;;;;15.40;94.80;;;;;;5093542;28;19912;-49
2022/04/12 09:51:36;;;;;;;;;;;15.50;93.00;;;;;;5094643;28;19915;-45
2022/04/12 09:54:02;;;;;;;;;;;15.70;92.70;;;;;;5094147;28;19914;-45
2022/04/12 09:56:29;;;;;;;;;;;15.80;91.80;;;;;;5094681;28;20002;-44
2022/04/12 09:58:59;;;;;;;;;;;15.90;91.80;;;;;;5094208;28;19908;-45
2022/04/12 10:01:25;;;;;;;;;;;16.00;92.60;;;;;;5093979;28;19934;-46
2022/04/12 10:03:55;;;;;;;;;;;16.10;87.30;;;;;;5094398;28;20348;-46
2022/04/12 10:06:21;;;;;;;;;;;16.20;84.80;;;;;;5094409;28;20347;-47
2022/04/12 10:08:51;;;;;;;;;;;16.30;88.70;;;;;;5093503;28;19957;-48
2022/04/12 10:11:17;;;;;;;;;;;16.40;91.40;;;;;;5093566;28;19915;-45
2022/04/12 10:13:43;;;;;;;;;;;16.50;90.40;;;;;;5094333;28;19908;-45
2022/04/12 10:16:09;;;;;;;;;;;16.60;88.30;;;;;;5093776;28;19920;-46
2022/04/12 10:18:35;;;;;;;;;;;16.70;86.30;;;;;;5094257;28;19916;-45
2022/04/12 10:21:01;;;;;;;;;;;16.70;86.80;;;;;;5093906;28;19914;-44
2022/04/12 10:23:27;;;;;;;;;;;16.80;87.40;;;;;;5093622;28;19908;-45
2022/04/12 10:25:54;;;;;;;;;;;16.80;85.50;;;;;;5093850;28;20014;-45
2022/04/12 10:28:21;;;;;;;;;;;16.90;88.10;;;;;;5094159;28;19909;-45
2022/04/12 10:30:46;;;;;;;;;;;17.00;85.20;;;;;;5092343;28;19916;-47
2022/04/12 10:33:15;;;;;;;;;;;17.00;86.60;;;;;;5093853;28;19915;-47
2022/04/12 10:35:46;;;;;;;;;;;17.10;86.90;;;;;;5094030;28;19912;-46
2022/04/12 10:38:12;;;;;;;;;;;17.20;88.70;;;;;;5093264;28;19920;-44
2022/04/12 10:40:41;;;;;;;;;;;17.40;88.20;;;;;;5092869;28;19912;-45
2022/04/12 10:43:07;;;;;;;;;;;17.50;85.80;;;;;;5092776;28;19912;-47
2022/04/12 10:45:33;;;;;;;;;;;17.60;79.10;;;;;;5093045;28;19915;-45
2022/04/12 10:48:01;;;;;;;;;;;17.80;82.90;;;;;;5093210;28;19908;-47
2022/04/12 10:50:27;;;;;;;;;;;17.90;71.10;;;;;;5092108;28;19916;-46
2022/04/12 10:52:52;;;;;;;;;;;17.90;77.20;;;;;;5093079;28;19908;-44
2022/04/12 10:55:20;;;;;;;;;;;18.10;81.00;;;;;;5075006;28;20398;-45
2022/04/12 10:57:45;;;;;;;;;;;18.20;81.60;;;;;;5091776;28;19920;-45
2022/04/12 11:00:18;;;;;;;;;;;18.30;79.10;;;;;;5093159;28;20397;-46
2022/04/12 11:02:44;;;;;;;;;;;18.40;76.00;;;;;;5092960;28;20008;-46
2022/04/12 11:05:29;;;;;;;;;;;18.50;80.60;;;;;;5092195;28;20363;-44
2022/04/12 11:07:54;;;;;;;;;;;18.60;76.40;;;;;;5092536;28;19915;-46
2022/04/12 11:10:21;;;;;;;;;;;18.60;75.40;;;;;;5092914;28;19908;-47
2022/04/12 11:12:47;;;;;;;;;;;18.70;79.70;;;;;;5092090;28;19913;-43
2022/04/12 11:15:25;;;;;;;;;;;18.80;75.80;;;;;;5092928;28;19996;-44
2022/04/12 11:18:08;;;;;;;;;;;18.90;74.50;;;;;;5092844;28;19924;-44
2022/04/12 11:20:35;;;;;;;;;;;19.10;75.00;;;;;;5092252;28;19912;-45
2022/04/12 11:23:04;;;;;;;;;;;19.10;73.80;;;;;;5093410;28;19994;-45
2022/04/12 11:25:29;;;;;;;;;;;19.10;72.70;;;;;;5092757;28;19908;-45
2022/04/12 11:27:56;;;;;;;;;;;19.20;71.60;;;;;;5093025;28;19928;-45
2022/04/12 11:30:23;;;;;;;;;;;19.40;71.80;;;;;;5093241;28;19909;-45
2022/04/12 11:32:48;;;;;;;;;;;19.50;71.40;;;;;;5092793;28;19916;-46
2022/04/12 11:35:14;;;;;;;;;;;19.60;69.60;;;;;;5093222;28;19930;-44
2022/04/12 11:37:40;;;;;;;;;;;19.60;68.00;;;;;;5092739;28;20007;-48
2022/04/12 11:40:06;;;;;;;;;;;19.60;69.40;;;;;;5091398;28;20351;-47
2022/04/12 11:42:31;;;;;;;;;;;19.50;69.40;;;;;;5093001;28;19999;-45
2022/04/12 11:44:57;;;;;;;;;;;19.50;70.50;;;;;;5093105;28;20278;-44
2022/04/12 11:47:27;;;;;;;;;;;19.50;72.10;;;;;;5092553;28;20002;-45
2022/04/12 11:49:52;;;;;;;;;;;19.40;68.90;;;;;;5092044;28;19916;-44
2022/04/12 11:52:18;;;;;;;;;;;19.50;69.20;;;;;;5092807;28;19916;-45
2022/04/12 11:54:50;;;;;;;;;;;19.60;70.10;;;;;;5092576;28;20003;-45
2022/04/12 11:57:20;;;;;;;;;;;19.70;72.50;;;;;;5093576;28;19922;-47
2022/04/12 11:59:50;;;;;;;;;;;19.80;70.60;;;;;;5096522;28;19915;-45
2022/04/12 12:02:20;;;;;;;;;;;19.80;68.70;;;;;;5096442;28;19912;-45
2022/04/12 12:04:49;;;;;;;;;;;19.90;68.00;;;;;;5096838;28;19994;-46
2022/04/12 12:07:15;;;;;;;;;;;19.80;68.90;;;;;;5096838;28;20387;-44
2022/04/12 12:10:13;;;;;;;;;;;19.80;71.00;;;;;;5095932;28;19912;-46
2022/04/12 12:12:39;;;;;;;;;;;19.80;69.70;;;;;;5051381;28;19919;-46
2022/04/12 12:15:15;;;;;;;;;;;19.80;71.00;;;;;;5096052;28;19908;-46
2022/04/12 12:17:41;;;;;;;;;;;19.80;74.70;;;;;;5096543;28;19916;-46
2022/04/12 12:20:07;;;;;;;;;;;20.00;72.40;;;;;;5096263;28;20007;-45
2022/04/12 12:22:37;;;;;;;;;;;20.20;66.50;;;;;;5095884;28;19950;-45
2022/04/12 12:25:02;;;;;;;;;;;20.40;69.80;;;;;;5096515;28;19914;-46
2022/04/12 12:27:32;;;;;;;;;;;20.50;62.20;;;;;;5096470;28;19909;-46
2022/04/12 12:30:00;;;;;;;;;;;20.70;61.90;;;;;;5095457;28;19915;-46
2022/04/12 12:32:29;;;;;;;;;;;20.80;57.80;;;;;;5096440;28;19913;-45
2022/04/12 12:35:00;;;;;;;;;;;21.00;62.30;;;;;;5096092;28;19915;-46
2022/04/12 12:37:25;;;;;;;;;;;21.00;58.00;;;;;;5095536;28;20351;-50
2022/04/12 12:39:50;;;;;;;;;;;20.80;55.40;;;;;;5095697;28;20049;-44
2022/04/12 12:42:16;;;;;;;;;;;20.70;55.50;;;;;;5096157;28;19962;-48
2022/04/12 12:44:41;;;;;;;;;;;20.80;60.70;;;;;;5095514;28;19951;-46
2022/04/12 12:47:09;;;;;;;;;;;21.00;64.20;;;;;;5096102;28;20244;-46
2022/04/12 12:49:36;;;;;;;;;;;21.30;62.40;;;;;;5095434;28;19912;-44
2022/04/12 12:52:06;;;;;;;;;;;21.60;58.50;;;;;;5095527;28;19908;-46
2022/04/12 12:54:32;;;;;;;;;;;21.80;58.30;;;;;;5096112;28;20007;-49
2022/04/12 12:56:57;;;;;;;;;;;22.10;59.00;;;;;;5094941;28;19989;-44
2022/04/12 12:59:30;;;;;;;;;;;22.20;59.50;;;;;;5095991;28;19914;-46
2022/04/12 13:01:55;;;;;;;;;;;22.40;63.20;;;;;;5095674;28;19908;-45
2022/04/12 13:04:22;;;;;;;;;;;22.40;54.20;;;;;;5095151;28;20018;-47
2022/04/12 13:06:57;;;;;;;;;;;22.70;61.60;;;;;;5095192;28;19919;-47
2022/04/12 13:09:23;;;;;;;;;;;23.00;60.90;;;;;;5095507;28;19908;-45
2022/04/12 13:11:48;;;;;;;;;;;23.20;57.80;;;;;;5095054;28;20347;-46
2022/04/12 13:14:14;;;;;;;;;;;23.20;52.40;;;;;;5095157;28;20327;-48
2022/04/12 13:16:39;;;;;;;;;;;22.90;52.70;;;;;;5095418;28;19952;-45
2022/04/12 13:19:05;;;;;;;;;;;23.00;55.10;;;;;;5094852;28;19935;-44
2022/04/12 13:21:30;;;;;;;;;;;22.80;52.90;;;;;;5095446;28;19935;-48
2022/04/12 13:23:56;;;;;;;;;;;22.70;54.60;;;;;;5095012;28;19918;-46
2022/04/12 13:26:21;;;;;;;;;;;22.70;52.30;;;;;;5094784;28;19931;-46
2022/04/12 13:28:47;;;;;;;;;;;22.70;54.70;;;;;;5095255;28;19908;-45
2022/04/12 13:31:12;;;;;;;;;;;22.70;57.10;;;;;;5095192;28;20359;-45
2022/04/12 13:33:37;;;;;;;;;;;22.60;55.60;;;;;;5094266;28;20271;-48
2022/04/12 13:36:03;;;;;;;;;;;22.60;58.60;;;;;;5094622;28;20035;-46
2022/04/12 13:38:28;;;;;;;;;;;22.40;57.30;;;;;;5094892;28;20005;-45
2022/04/12 13:40:54;;;;;;;;;;;22.30;54.30;;;;;;5094506;28;19908;-47
2022/04/12 13:43:19;;;;;;;;;;;22.20;56.40;;;;;;5094782;28;19908;-47
2022/04/12 13:45:45;;;;;;;;;;;22.20;58.10;;;;;;5094687;28;19918;-45
2022/04/12 13:48:10;;;;;;;;;;;22.10;59.80;;;;;;5094179;28;19969;-45
2022/04/12 13:50:36;;;;;;;;;;;22.00;56.60;;;;;;5094809;28;19955;-45
2022/04/12 13:53:01;;;;;;;;;;;21.90;59.00;;;;;;5094449;28;19912;-51
2022/04/12 13:55:27;;;;;;;;;;;21.70;56.80;;;;;;5094424;28;19918;-47
2022/04/12 13:57:52;;;;;;;;;;;21.60;54.90;;;;;;5094556;28;19916;-46
2022/04/12 14:00:23;;;;;;;;;;;21.40;59.10;;;;;;5094045;28;19912;-44
2022/04/12 14:02:52;;;;;;;;;;;21.30;57.90;;;;;;5094613;28;19924;-44
2022/04/12 14:05:17;;;;;;;;;;;21.20;61.40;;;;;;5093971;28;19912;-45
2022/04/12 14:07:43;;;;;;;;;;;21.20;63.30;;;;;;5093467;28;19957;-45
2022/04/12 14:10:09;;;;;;;;;;;21.20;62.90;;;;;;5094478;28;20011;-47
2022/04/12 14:12:34;;;;;;;;;;;21.30;62.40;;;;;;5094452;28;20007;-46
2022/04/12 14:15:00;;;;;;;;;;;21.50;64.40;;;;;;5093372;28;20003;-44
2022/04/12 14:17:25;;;;;;;;;;;22.00;64.70;;;;;;5094303;28;20329;-46
2022/04/12 14:19:51;;;;;;;;;;;22.70;62.40;;;;;;5093828;28;19912;-47
2022/04/12 14:22:16;;;;;;;;;;;23.20;60.40;;;;;;5093695;28;20011;-48